createdAt,value
2019-04-26T00:01:46.033Z,57.30
2019-04-26T00:04:14.366Z,57.20
2019-04-26T00:06:42.624Z,57.10
2019-04-26T00:09:27.726Z,57.70
2019-04-26T00:12:14.426Z,57.40
2019-04-26T00:14:44.418Z,57.30
2019-04-26T00:17:14.377Z,57.60
2019-04-26T00:19:43.982Z,57.40
2019-04-26T00:22:12.971Z,57.80
2019-04-26T00:24:41.635Z,58.10
2019-04-26T00:27:11.271Z,58.20
2019-04-26T00:29:39.722Z,58.20
2019-04-26T00:32:07.972Z,58.00
2019-04-26T00:34:36.237Z,58.20
2019-04-26T00:37:04.493Z,58.50
2019-04-26T00:39:32.785Z,58.60
2019-04-26T00:42:01.323Z,59.10
2019-04-26T00:44:29.591Z,59.20
2019-04-26T00:46:57.855Z,59.40
2019-04-26T00:49:26.130Z,59.20
2019-04-26T00:51:55.010Z,59.70
2019-04-26T00:54:24.259Z,59.30
2019-04-26T00:56:52.960Z,59.30
2019-04-26T00:59:21.214Z,59.50
2019-04-26T01:01:51.357Z,59.60
2019-04-26T01:04:19.597Z,59.60
2019-04-26T01:06:49.521Z,59.60
2019-04-26T01:09:18.141Z,59.60
2019-04-26T01:11:46.405Z,59.70
2019-04-26T01:14:15.513Z,59.80
2019-04-26T01:16:44.638Z,60.10
2019-04-26T01:19:12.886Z,60.20
2019-04-26T01:21:47.604Z,60.80
2019-04-26T01:24:16.882Z,60.90
2019-04-26T01:26:45.841Z,61.20
2019-04-26T01:29:14.266Z,61.40
2019-04-26T01:31:45.819Z,61.80
2019-04-26T01:34:14.322Z,62.50
2019-04-26T01:36:42.700Z,62.90
2019-04-26T01:39:17.096Z,62.90
2019-04-26T01:41:58.259Z,63.00
2019-04-26T01:44:33.639Z,63.60
2019-04-26T01:47:01.909Z,63.80
2019-04-26T01:49:30.687Z,63.80
2019-04-26T01:52:02.155Z,63.70
2019-04-26T01:54:36.482Z,64.00
2019-04-26T01:57:04.906Z,64.20
2019-04-26T01:59:33.417Z,64.30
2019-04-26T02:02:12.102Z,64.70
2019-04-26T02:04:42.011Z,65.00
2019-04-26T02:07:10.273Z,65.30
2019-04-26T02:09:38.558Z,65.90
2019-04-26T02:12:07.076Z,65.60
2019-04-26T02:14:35.605Z,65.90
2019-04-26T02:17:04.118Z,65.70
2019-04-26T02:19:33.670Z,65.90
2019-04-26T02:22:03.762Z,65.90
2019-04-26T02:24:36.642Z,66.00
2019-04-26T02:27:06.524Z,65.50
2019-04-26T02:29:35.163Z,66.10
2019-04-26T02:32:04.418Z,65.90
2019-04-26T02:34:33.871Z,66.20
2019-04-26T02:37:04.018Z,66.30
2019-04-26T02:39:37.506Z,66.60
2019-04-26T02:42:08.158Z,66.40
2019-04-26T02:44:40.784Z,66.80
2019-04-26T02:47:33.167Z,67.30
2019-04-26T02:50:08.202Z,67.00
2019-04-26T02:52:42.552Z,67.40
2019-04-26T02:55:15.631Z,67.40
2019-04-26T02:57:47.422Z,67.70
2019-04-26T03:00:18.462Z,67.60
2019-04-26T03:02:48.904Z,67.70
2019-04-26T03:05:17.181Z,68.00
2019-04-26T03:07:51.325Z,68.60
2019-04-26T03:10:20.135Z,68.80
2019-04-26T03:12:48.632Z,68.80
2019-04-26T03:15:22.935Z,69.20
2019-04-26T03:17:58.938Z,69.50
2019-04-26T03:20:32.578Z,69.60
2019-04-26T03:23:12.623Z,69.70
2019-04-26T03:25:46.829Z,70.00
2019-04-26T03:28:37.125Z,70.00
2019-04-26T03:31:17.156Z,70.50
2019-04-26T03:34:06.487Z,70.30
2019-04-26T03:37:19.360Z,70.70
2019-04-26T03:40:18.740Z,70.70
2019-04-26T03:42:59.234Z,71.20
2019-04-26T03:45:46.190Z,71.50
2019-04-26T03:48:20.501Z,71.40
2019-04-26T03:51:25.711Z,71.70
2019-04-26T03:53:57.339Z,72.00
2019-04-26T03:56:30.725Z,72.30
2019-04-26T03:59:38.893Z,72.50
2019-04-26T04:02:27.033Z,73.60
2019-04-26T04:04:59.772Z,72.90
2019-04-26T04:07:37.172Z,73.50
2019-04-26T04:10:07.450Z,73.50
2019-04-26T04:12:42.150Z,73.80
2019-04-26T04:15:14.763Z,73.60
2019-04-26T04:17:50.394Z,73.90
2019-04-26T04:20:44.373Z,74.40
2019-04-26T04:23:33.251Z,74.20
2019-04-26T04:26:01.533Z,74.20
2019-04-26T04:29:03.792Z,74.50
2019-04-26T04:31:49.004Z,74.80
2019-04-26T04:34:23.891Z,74.80
2019-04-26T04:36:53.700Z,75.20
2019-04-26T04:39:28.444Z,74.90
2019-04-26T04:42:17.797Z,75.00
2019-04-26T04:45:00.137Z,74.80
2019-04-26T04:47:32.749Z,74.80
2019-04-26T04:50:11.777Z,74.70
2019-04-26T04:52:55.214Z,74.80
2019-04-26T04:55:55.281Z,74.80
2019-04-26T04:58:43.565Z,74.70
2019-04-26T05:01:34.368Z,74.70
2019-04-26T05:04:13.039Z,74.40
2019-04-26T05:07:16.526Z,74.20
2019-04-26T05:10:08.554Z,74.20
2019-04-26T05:12:57.907Z,74.50
2019-04-26T05:15:39.995Z,74.40
2019-04-26T05:18:17.378Z,74.70
2019-04-26T05:20:48.896Z,73.90
2019-04-26T05:23:32.247Z,73.50
2019-04-26T05:26:24.730Z,73.20
2019-04-26T05:29:34.441Z,73.00
2019-04-26T05:32:31.978Z,73.00
2019-04-26T05:35:15.321Z,72.90
2019-04-26T05:38:17.926Z,72.70
2019-04-26T05:41:13.946Z,72.50
2019-04-26T05:43:58.514Z,72.00
2019-04-26T05:46:54.461Z,71.20
2019-04-26T05:50:02.384Z,71.00
2019-04-26T05:52:45.781Z,71.60
2019-04-26T05:55:18.684Z,72.00
2019-04-26T05:57:54.666Z,71.00
2019-04-26T06:00:47.230Z,70.90
2019-04-26T06:04:10.514Z,71.30
2019-04-26T06:06:46.604Z,70.10
2019-04-26T06:09:50.347Z,69.40
2019-04-26T06:12:52.581Z,69.10
2019-04-26T06:15:43.345Z,69.60
2019-04-26T06:18:37.733Z,68.80
2019-04-26T06:21:26.151Z,67.40
2019-04-26T06:24:00.709Z,67.20
2019-04-26T06:27:10.994Z,67.80
2019-04-26T06:29:54.122Z,67.30
2019-04-26T06:32:28.831Z,67.80
2019-04-26T06:35:20.275Z,67.50
2019-04-26T06:38:00.022Z,67.00
2019-04-26T06:41:04.928Z,67.20
2019-04-26T06:43:38.384Z,66.70
2019-04-26T06:46:23.541Z,63.50
2019-04-26T06:49:24.018Z,63.30
2019-04-26T06:52:10.064Z,63.50
2019-04-26T06:55:10.034Z,62.00
2019-04-26T06:58:04.896Z,61.70
2019-04-26T07:01:03.295Z,59.80
2019-04-26T07:03:53.266Z,59.00
2019-04-26T07:06:45.558Z,58.80
2019-04-26T07:09:13.840Z,58.40
2019-04-26T07:12:18.778Z,56.60
2019-04-26T07:14:59.448Z,56.60
2019-04-26T07:17:51.418Z,56.20
2019-04-26T07:20:39.654Z,53.70
2019-04-26T07:23:24.293Z,53.80
2019-04-26T07:26:17.644Z,51.30
2019-04-26T07:29:11.765Z,50.20
2019-04-26T07:31:52.226Z,49.30
2019-04-26T07:34:25.345Z,48.20
2019-04-26T07:37:20.418Z,48.00
2019-04-26T07:40:07.620Z,46.40
2019-04-26T07:43:01.904Z,46.40
2019-04-26T07:45:54.206Z,45.00
2019-04-26T07:48:34.542Z,44.20
2019-04-26T07:51:32.169Z,45.20
2019-04-26T07:54:23.237Z,44.40
2019-04-26T07:57:41.824Z,42.20
2019-04-26T08:00:19.191Z,40.60
2019-04-26T08:03:06.964Z,43.10
2019-04-26T08:05:40.289Z,41.20
2019-04-26T08:08:08.666Z,41.40
2019-04-26T08:10:39.144Z,41.50
2019-04-26T08:13:10.150Z,40.80
2019-04-26T08:16:04.885Z,39.40
2019-04-26T08:18:36.447Z,38.50
2019-04-26T08:21:12.729Z,38.50
2019-04-26T08:23:42.082Z,37.30
2019-04-26T08:26:13.402Z,37.20
2019-04-26T08:28:42.081Z,37.70
2019-04-26T08:31:15.564Z,38.50
2019-04-26T08:33:48.439Z,37.20
2019-04-26T08:36:14.699Z,36.40
2019-04-26T08:38:43.127Z,35.10
2019-04-26T08:41:11.607Z,37.80
2019-04-26T08:43:44.223Z,38.20
2019-04-26T08:46:32.297Z,36.90
2019-04-26T08:49:08.483Z,36.10
2019-04-26T08:51:37.448Z,36.90
2019-04-26T08:54:07.410Z,33.90
2019-04-26T08:56:40.645Z,34.20
2019-04-26T08:59:15.001Z,33.80
2019-04-26T09:01:45.485Z,34.10
2019-04-26T09:04:31.770Z,35.00
2019-04-26T09:07:12.176Z,35.40
2019-04-26T09:09:41.519Z,35.50
2019-04-26T09:12:22.496Z,34.40
2019-04-26T09:14:43.714Z,33.10
2019-04-26T09:17:12.220Z,32.80
2019-04-26T09:19:40.504Z,31.20
2019-04-26T09:22:13.353Z,30.70
2019-04-26T09:24:55.147Z,31.40
2019-04-26T09:27:25.540Z,32.40
2019-04-26T09:30:00.540Z,29.90
2019-04-26T09:32:36.418Z,28.70
2019-04-26T09:35:06.794Z,32.30
2019-04-26T09:37:35.312Z,30.00
2019-04-26T09:40:10.396Z,27.90
2019-04-26T09:42:39.269Z,26.90
2019-04-26T09:45:09.313Z,27.80
2019-04-26T09:47:51.897Z,29.30
2019-04-26T09:50:24.438Z,29.90
2019-04-26T09:52:54.274Z,27.70
2019-04-26T09:55:34.558Z,28.20
2019-04-26T09:57:53.554Z,30.20
2019-04-26T10:00:24.428Z,29.90
2019-04-26T10:02:52.706Z,28.40
2019-04-26T10:05:22.290Z,26.90
2019-04-26T10:07:51.212Z,26.80
2019-04-26T10:10:23.139Z,28.60
2019-04-26T10:12:57.835Z,28.50
2019-04-26T10:15:31.108Z,28.90
2019-04-26T10:18:00.045Z,28.90
2019-04-26T10:20:28.294Z,29.50
2019-04-26T10:22:56.565Z,29.70
2019-04-26T10:25:24.808Z,30.00
2019-04-26T10:27:53.080Z,29.50
2019-04-26T10:30:21.336Z,29.60
2019-04-26T10:32:49.606Z,28.80
2019-04-26T10:35:21.748Z,28.70
2019-04-26T10:37:49.150Z,29.30
2019-04-26T10:40:17.586Z,28.20
2019-04-26T10:42:45.857Z,31.40
2019-04-26T10:45:16.306Z,29.70
2019-04-26T10:47:44.968Z,30.00
2019-04-26T10:50:13.238Z,27.90
2019-04-26T10:52:53.415Z,27.50
2019-04-26T10:55:32.734Z,26.70
2019-04-26T10:58:18.814Z,28.80
2019-04-26T11:00:54.252Z,27.30
2019-04-26T11:03:22.784Z,26.50
2019-04-26T11:05:53.790Z,26.80
2019-04-26T11:08:21.057Z,25.50
2019-04-26T11:10:49.328Z,26.00
2019-04-26T11:13:17.604Z,26.80
2019-04-26T11:15:46.133Z,26.40
2019-04-26T11:18:14.652Z,26.10
2019-04-26T11:20:45.662Z,27.10
2019-04-26T11:23:12.988Z,26.50
2019-04-26T11:25:41.240Z,25.30
2019-04-26T11:28:09.518Z,25.80
2019-04-26T11:30:38.042Z,26.00
2019-04-26T11:33:07.236Z,25.80
2019-04-26T11:35:36.328Z,26.40
2019-04-26T11:38:04.652Z,25.70
2019-04-26T11:40:32.977Z,25.70
2019-04-26T11:43:01.228Z,27.80
2019-04-26T11:45:29.865Z,29.70
2019-04-26T11:47:58.216Z,29.80
2019-04-26T11:50:26.492Z,30.30
2019-04-26T11:52:54.741Z,32.40
2019-04-26T11:55:25.417Z,31.20
2019-04-26T11:57:53.002Z,31.20
2019-04-26T12:00:27.517Z,31.80
2019-04-26T12:02:55.522Z,32.70
2019-04-26T12:05:37.505Z,32.10
2019-04-26T12:08:07.420Z,32.10
2019-04-26T12:10:35.745Z,31.90
2019-04-26T12:13:05.797Z,31.60
2019-04-26T12:15:34.302Z,30.50
2019-04-26T12:18:05.700Z,30.50
2019-04-26T12:20:32.896Z,31.90
2019-04-26T12:23:01.143Z,30.50
2019-04-26T12:25:31.088Z,31.70
2019-04-26T12:28:01.896Z,31.30
2019-04-26T12:30:29.556Z,31.70
2019-04-26T12:32:58.053Z,32.30
2019-04-26T12:35:26.340Z,31.80
2019-04-26T12:37:55.713Z,31.30
2019-04-26T12:40:24.217Z,32.30
2019-04-26T12:42:52.474Z,32.00
2019-04-26T12:45:24.788Z,33.10
2019-04-26T12:47:54.689Z,32.40
2019-04-26T12:50:23.023Z,32.60
2019-04-26T12:52:54.990Z,32.60
2019-04-26T12:55:21.314Z,32.10
2019-04-26T12:57:49.983Z,32.50
2019-04-26T13:00:19.887Z,31.80
2019-04-26T13:02:50.140Z,33.00
2019-04-26T13:05:18.981Z,31.70
2019-04-26T13:07:50.047Z,32.50
2019-04-26T13:10:25.924Z,30.80
2019-04-26T13:13:08.009Z,31.60
2019-04-26T13:16:04.094Z,31.10
2019-04-26T13:18:32.360Z,30.00
2019-04-26T13:21:03.120Z,31.40
2019-04-26T13:23:31.330Z,29.70
2019-04-26T13:26:01.428Z,28.50
2019-04-26T13:28:29.967Z,28.20
2019-04-26T13:30:58.245Z,28.20
2019-04-26T13:33:27.407Z,29.00
2019-04-26T13:36:02.803Z,29.10
2019-04-26T13:38:26.466Z,28.90
2019-04-26T13:40:54.750Z,28.00
2019-04-26T13:43:27.079Z,29.20
2019-04-26T13:45:55.000Z,28.70
2019-04-26T13:48:43.560Z,28.70
2019-04-26T13:51:12.799Z,30.00
2019-04-26T13:53:41.319Z,31.90
2019-04-26T13:56:10.419Z,32.50
2019-04-26T13:58:38.679Z,34.50
2019-04-26T14:01:08.857Z,34.70
2019-04-26T14:03:37.114Z,35.80
2019-04-26T14:06:05.658Z,34.50
2019-04-26T14:08:33.919Z,34.70
2019-04-26T14:11:02.189Z,34.80
2019-04-26T14:13:30.718Z,35.10
2019-04-26T14:15:58.988Z,34.80
2019-04-26T14:18:27.727Z,35.00
2019-04-26T14:20:59.009Z,34.30
2019-04-26T14:23:33.393Z,34.80
2019-04-26T14:26:05.253Z,35.40
2019-04-26T14:28:32.123Z,36.20
2019-04-26T14:31:00.654Z,36.70
2019-04-26T14:33:30.831Z,36.00
2019-04-26T14:35:58.907Z,34.00
2019-04-26T14:38:29.332Z,34.10
2019-04-26T14:41:04.108Z,34.10
2019-04-26T14:43:40.034Z,33.60
2019-04-26T14:45:57.880Z,34.60
2019-04-26T14:48:35.728Z,33.90
2019-04-26T14:51:07.506Z,34.80
2019-04-26T14:53:26.702Z,35.40
2019-04-26T14:55:55.672Z,35.40
2019-04-26T14:58:29.939Z,36.30
2019-04-26T15:00:58.738Z,37.40
2019-04-26T15:03:40.605Z,36.50
2019-04-26T15:06:10.752Z,35.80
2019-04-26T15:08:40.583Z,36.30
2019-04-26T15:11:09.270Z,35.80
2019-04-26T15:13:40.338Z,35.10
2019-04-26T15:16:10.491Z,34.40
2019-04-26T15:18:38.439Z,34.30
2019-04-26T15:21:06.933Z,34.00
2019-04-26T15:23:35.208Z,34.80
2019-04-26T15:26:03.741Z,35.20
2019-04-26T15:28:33.176Z,34.20
2019-04-26T15:31:02.321Z,33.10
2019-04-26T15:33:32.392Z,34.10
2019-04-26T15:36:02.243Z,33.60
2019-04-26T15:38:34.856Z,33.80
2019-04-26T15:41:16.250Z,33.70
2019-04-26T15:43:42.946Z,33.60
2019-04-26T15:46:19.249Z,33.60
2019-04-26T15:48:54.471Z,32.70
2019-04-26T15:51:27.361Z,33.90
2019-04-26T15:53:54.501Z,35.50
2019-04-26T15:56:23.131Z,35.10
2019-04-26T15:58:52.335Z,36.60
2019-04-26T16:01:21.101Z,36.50
2019-04-26T16:03:49.374Z,36.20
2019-04-26T16:06:17.612Z,36.40
2019-04-26T16:08:45.889Z,36.30
2019-04-26T16:11:14.138Z,36.80
2019-04-26T16:13:45.146Z,36.30
2019-04-26T16:16:12.667Z,35.80
2019-04-26T16:18:41.053Z,36.20
2019-04-26T16:21:13.505Z,37.40
2019-04-26T16:23:43.205Z,38.00
2019-04-26T16:26:12.911Z,38.30
2019-04-26T16:28:43.017Z,38.20
2019-04-26T16:31:16.174Z,39.00
2019-04-26T16:33:55.045Z,39.00
2019-04-26T16:36:23.904Z,38.80
2019-04-26T16:38:54.773Z,39.20
2019-04-26T16:41:27.344Z,39.50
2019-04-26T16:43:54.682Z,39.40
2019-04-26T16:46:24.870Z,39.40
2019-04-26T16:48:56.675Z,39.40
2019-04-26T16:51:23.782Z,39.80
2019-04-26T16:56:26.223Z,40.20
2019-04-26T16:58:54.865Z,40.90
2019-04-26T17:00:33.600Z,40.00
2019-04-26T17:01:23.430Z,40.60
2019-04-26T17:03:53.531Z,40.80
2019-04-26T17:06:23.288Z,41.40
2019-04-26T17:09:00.244Z,41.70
2019-04-26T17:11:22.976Z,42.10
2019-04-26T17:13:55.028Z,42.70
2019-04-26T17:16:22.469Z,43.00
2019-04-26T17:18:51.376Z,44.00
2019-04-26T17:21:23.911Z,44.10
2019-04-26T17:24:09.832Z,44.10
2019-04-26T17:26:40.205Z,44.60
2019-04-26T17:29:08.482Z,44.50
2019-04-26T17:31:37.065Z,45.10
2019-04-26T17:34:05.657Z,44.90
2019-04-26T17:36:34.557Z,45.20
2019-04-26T17:39:04.340Z,45.30
2019-04-26T17:41:33.283Z,46.40
2019-04-26T17:44:08.337Z,46.30
2019-04-26T17:46:32.617Z,46.80
2019-04-26T17:49:01.077Z,47.40
2019-04-26T17:51:31.281Z,47.20
2019-04-26T17:54:21.033Z,47.30
2019-04-26T17:56:33.625Z,47.50
2019-04-26T17:59:03.224Z,47.90
2019-04-26T18:01:42.936Z,47.70
2019-04-26T18:04:00.271Z,48.40
2019-04-26T18:06:30.076Z,48.80
2019-04-26T18:08:58.802Z,49.40
2019-04-26T18:11:27.304Z,49.80
2019-04-26T18:13:55.575Z,50.30
2019-04-26T18:16:29.134Z,50.80
2019-04-26T18:18:56.157Z,51.20
2019-04-26T18:21:37.969Z,51.60
2019-04-26T18:24:06.257Z,51.60
2019-04-26T18:26:34.569Z,52.00
2019-04-26T18:29:03.838Z,52.10
2019-04-26T18:31:33.636Z,52.60
2019-04-26T18:34:04.030Z,53.50
2019-04-26T18:36:33.309Z,53.90
2019-04-26T18:39:01.617Z,53.40
2019-04-26T18:41:29.974Z,53.50
2019-04-26T18:43:59.687Z,53.90
2019-04-26T18:46:46.918Z,54.50
2019-04-26T18:49:18.279Z,54.50
2019-04-26T18:51:48.118Z,54.90
2019-04-26T18:54:17.962Z,54.70
2019-04-26T18:56:48.061Z,54.90
2019-04-26T18:59:16.308Z,55.10
2019-04-26T19:01:44.927Z,55.40
2019-04-26T19:04:15.398Z,55.60
2019-04-26T19:06:43.451Z,55.80
2019-04-26T19:09:12.227Z,55.90
2019-04-26T19:11:43.823Z,56.10
2019-04-26T19:14:27.558Z,55.90
2019-04-26T19:17:02.025Z,56.10
2019-04-26T19:19:35.122Z,56.20
2019-04-26T19:22:04.970Z,56.80
2019-04-26T19:24:33.462Z,56.80
2019-04-26T19:27:04.152Z,56.90
2019-04-26T19:29:35.915Z,57.50
2019-04-26T19:32:04.315Z,57.30
2019-04-26T19:34:32.218Z,57.40
2019-04-26T19:37:01.467Z,57.40
2019-04-26T19:39:35.053Z,57.70
2019-04-26T19:42:02.370Z,57.80
2019-04-26T19:44:31.581Z,57.90
2019-04-26T19:47:04.949Z,58.20
2019-04-26T19:49:52.532Z,58.70
2019-04-26T19:52:28.918Z,58.80
2019-04-26T19:55:15.339Z,59.00
2019-04-26T19:57:45.418Z,59.30
2019-04-26T20:00:13.743Z,59.80
2019-04-26T20:02:42.155Z,59.90
2019-04-26T20:05:11.881Z,60.00
2019-04-26T20:07:41.628Z,60.40
2019-04-26T20:10:10.044Z,60.60
2019-04-26T20:12:38.366Z,60.50
2019-04-26T20:15:07.479Z,60.50
2019-04-26T20:17:35.759Z,60.90
2019-04-26T20:20:16.588Z,61.20
2019-04-26T20:22:34.394Z,61.40
2019-04-26T20:25:02.640Z,61.80
2019-04-26T20:27:32.410Z,62.30
2019-04-26T20:30:02.387Z,62.30
2019-04-26T20:32:32.465Z,62.60
2019-04-26T20:35:02.666Z,62.40
2019-04-26T20:37:32.196Z,62.90
2019-04-26T20:40:17.563Z,62.30
2019-04-26T20:42:31.649Z,61.70
2019-04-26T20:45:00.291Z,62.20
2019-04-26T20:47:28.558Z,62.70
2019-04-26T20:50:01.276Z,63.00
2019-04-26T20:52:26.794Z,63.30
2019-04-26T20:54:55.070Z,64.40
2019-04-26T20:57:26.635Z,63.40
2019-04-26T21:00:01.574Z,63.50
2019-04-26T21:02:24.825Z,63.40
2019-04-26T21:04:53.578Z,63.40
2019-04-26T21:07:21.967Z,63.20
2019-04-26T21:09:50.271Z,63.30
2019-04-26T21:12:18.586Z,63.20
2019-04-26T21:14:46.854Z,63.40
2019-04-26T21:17:15.139Z,63.10
2019-04-26T21:19:43.376Z,63.60
2019-04-26T21:22:11.676Z,63.80
2019-04-26T21:24:41.569Z,63.70
2019-04-26T21:27:14.461Z,64.10
2019-04-26T21:30:03.115Z,64.10
2019-04-26T21:32:33.239Z,64.10
2019-04-26T21:35:04.385Z,64.30
2019-04-26T21:37:37.221Z,64.80
2019-04-26T21:40:26.042Z,65.00
2019-04-26T21:42:55.311Z,65.10
2019-04-26T21:45:28.367Z,64.90
2019-04-26T21:47:54.320Z,64.90
2019-04-26T21:50:22.668Z,65.30
2019-04-26T21:52:51.195Z,65.10
2019-04-26T21:55:19.699Z,65.30
2019-04-26T21:57:47.952Z,65.20
2019-04-26T22:00:20.521Z,65.20
2019-04-26T22:02:48.781Z,65.40
2019-04-26T22:05:17.033Z,65.80
2019-04-26T22:07:47.738Z,65.80
2019-04-26T22:10:20.069Z,66.40
2019-04-26T22:12:48.583Z,66.40
2019-04-26T22:15:35.834Z,66.40
2019-04-26T22:18:03.261Z,66.60
2019-04-26T22:20:33.734Z,66.70
2019-04-26T22:23:03.717Z,67.70
2019-04-26T22:25:33.863Z,69.20
2019-04-26T22:28:03.354Z,69.80
2019-04-26T22:30:33.149Z,71.80
2019-04-26T22:33:03.012Z,73.40
2019-04-26T22:35:31.509Z,73.90
2019-04-26T22:37:59.779Z,74.60
2019-04-26T22:40:28.017Z,76.80
2019-04-26T22:42:58.183Z,78.50
2019-04-26T22:45:46.890Z,83.20
2019-04-26T22:48:23.036Z,85.50
2019-04-26T22:50:46.551Z,87.40
2019-04-26T22:53:15.083Z,90.70
2019-04-26T22:55:43.708Z,90.80
2019-04-26T22:58:13.404Z,91.30
2019-04-26T23:00:43.591Z,91.90
2019-04-26T23:19:15.264Z,92.60
